sensor_id;sensor_type;location;lat;lon;timestamp;P1;durP1;ratioP1;P2;durP2;ratioP2
2720;SDS011;1368;49.484;11.112;2024-03-23T00:53:47;17.13;;;10.87;;
2720;SDS011;1368;49.484;11.112;2024-03-23T00:56:12;13.70;;;10.93;;
2720;SDS011;1368;49.484;11.112;2024-03-23T00:58:38;14.90;;;10.70;;
2720;SDS011;1368;49.484;11.112;2024-03-23T01:01:03;12.67;;;10.77;;
2720;SDS011;1368;49.484;11.112;2024-03-23T01:03:29;21.83;;;10.00;;
2720;SDS011;1368;49.484;11.112;2024-03-23T01:05:58;14.97;;;10.90;;
2720;SDS011;1368;49.484;11.112;2024-03-23T01:08:25;22.03;;;11.50;;
2720;SDS011;1368;49.484;11.112;2024-03-23T01:10:54;15.80;;;11.23;;
2720;SDS011;1368;49.484;11.112;2024-03-23T01:13:20;13.70;;;10.73;;
2720;SDS011;1368;49.484;11.112;2024-03-23T01:15:50;16.57;;;11.10;;
2720;SDS011;1368;49.484;11.112;2024-03-23T01:18:16;23.33;;;12.20;;
2720;SDS011;1368;49.484;11.112;2024-03-23T01:20:43;14.50;;;10.30;;
2720;SDS011;1368;49.484;11.112;2024-03-23T01:23:08;18.90;;;12.50;;
2720;SDS011;1368;49.484;11.112;2024-03-23T01:25:34;18.47;;;12.03;;
2720;SDS011;1368;49.484;11.112;2024-03-23T01:27:59;20.10;;;11.40;;
2720;SDS011;1368;49.484;11.112;2024-03-23T01:30:25;14.03;;;12.13;;
2720;SDS011;1368;49.484;11.112;2024-03-23T01:32:51;17.23;;;11.20;;
2720;SDS011;1368;49.484;11.112;2024-03-23T01:35:16;15.17;;;11.53;;
2720;SDS011;1368;49.484;11.112;2024-03-23T01:37:42;17.07;;;13.10;;
2720;SDS011;1368;49.484;11.112;2024-03-23T01:40:07;17.50;;;13.30;;
2720;SDS011;1368;49.484;11.112;2024-03-23T01:42:33;15.73;;;12.50;;
2720;SDS011;1368;49.484;11.112;2024-03-23T01:44:59;17.30;;;12.43;;
2720;SDS011;1368;49.484;11.112;2024-03-23T01:47:24;19.00;;;12.57;;
2720;SDS011;1368;49.484;11.112;2024-03-23T01:49:50;17.20;;;12.07;;
2720;SDS011;1368;49.484;11.112;2024-03-23T01:52:16;18.97;;;12.30;;
2720;SDS011;1368;49.484;11.112;2024-03-23T01:54:42;17.37;;;12.30;;
2720;SDS011;1368;49.484;11.112;2024-03-23T01:57:09;20.63;;;12.00;;
2720;SDS011;1368;49.484;11.112;2024-03-23T01:59:35;20.23;;;11.57;;
2720;SDS011;1368;49.484;11.112;2024-03-23T02:02:01;15.87;;;12.10;;
2720;SDS011;1368;49.484;11.112;2024-03-23T02:04:26;16.10;;;11.47;;
2720;SDS011;1368;49.484;11.112;2024-03-23T02:06:52;15.70;;;11.20;;
2720;SDS011;1368;49.484;11.112;2024-03-23T02:09:18;16.23;;;12.03;;
2720;SDS011;1368;49.484;11.112;2024-03-23T02:11:43;14.40;;;11.10;;
2720;SDS011;1368;49.484;11.112;2024-03-23T02:14:09;18.67;;;11.53;;
2720;SDS011;1368;49.484;11.112;2024-03-23T02:16:34;15.40;;;9.83;;
2720;SDS011;1368;49.484;11.112;2024-03-23T02:19:00;15.17;;;11.37;;
2720;SDS011;1368;49.484;11.112;2024-03-23T02:21:25;17.93;;;11.60;;
2720;SDS011;1368;49.484;11.112;2024-03-23T02:23:52;14.07;;;11.10;;
2720;SDS011;1368;49.484;11.112;2024-03-23T02:26:18;19.40;;;12.07;;
2720;SDS011;1368;49.484;11.112;2024-03-23T02:28:43;12.23;;;10.00;;
2720;SDS011;1368;49.484;11.112;2024-03-23T02:31:09;14.23;;;10.97;;
2720;SDS011;1368;49.484;11.112;2024-03-23T02:33:34;12.80;;;9.93;;
2720;SDS011;1368;49.484;11.112;2024-03-23T02:36:03;12.60;;;10.50;;
2720;SDS011;1368;49.484;11.112;2024-03-23T02:38:29;16.20;;;10.27;;
2720;SDS011;1368;49.484;11.112;2024-03-23T02:40:54;16.03;;;10.57;;
2720;SDS011;1368;49.484;11.112;2024-03-23T02:43:20;13.87;;;10.40;;
2720;SDS011;1368;49.484;11.112;2024-03-23T02:45:46;13.63;;;9.87;;
2720;SDS011;1368;49.484;11.112;2024-03-23T02:48:12;13.30;;;10.60;;
2720;SDS011;1368;49.484;11.112;2024-03-23T02:50:37;12.43;;;11.00;;
2720;SDS011;1368;49.484;11.112;2024-03-23T02:53:03;13.10;;;9.73;;
2720;SDS011;1368;49.484;11.112;2024-03-23T02:55:29;11.63;;;9.43;;
2720;SDS011;1368;49.484;11.112;2024-03-23T02:57:54;15.37;;;10.57;;
2720;SDS011;1368;49.484;11.112;2024-03-23T03:00:20;14.63;;;10.10;;
2720;SDS011;1368;49.484;11.112;2024-03-23T03:02:46;15.57;;;10.80;;
2720;SDS011;1368;49.484;11.112;2024-03-23T03:05:11;16.50;;;10.30;;
2720;SDS011;1368;49.484;11.112;2024-03-23T03:07:38;11.30;;;9.60;;
2720;SDS011;1368;49.484;11.112;2024-03-23T03:10:05;15.67;;;10.80;;
2720;SDS011;1368;49.484;11.112;2024-03-23T03:12:33;13.60;;;9.67;;
2720;SDS011;1368;49.484;11.112;2024-03-23T03:14:59;13.33;;;10.93;;
2720;SDS011;1368;49.484;11.112;2024-03-23T03:17:24;14.13;;;11.23;;
2720;SDS011;1368;49.484;11.112;2024-03-23T03:19:50;12.87;;;10.07;;
2720;SDS011;1368;49.484;11.112;2024-03-23T03:22:20;16.00;;;10.57;;
2720;SDS011;1368;49.484;11.112;2024-03-23T03:24:46;15.03;;;10.50;;
2720;SDS011;1368;49.484;11.112;2024-03-23T03:27:12;12.33;;;10.47;;
2720;SDS011;1368;49.484;11.112;2024-03-23T03:29:37;12.97;;;9.67;;
2720;SDS011;1368;49.484;11.112;2024-03-23T03:32:03;14.60;;;10.47;;
2720;SDS011;1368;49.484;11.112;2024-03-23T03:34:29;17.57;;;9.43;;
2720;SDS011;1368;49.484;11.112;2024-03-23T03:36:54;16.40;;;9.13;;
2720;SDS011;1368;49.484;11.112;2024-03-23T03:39:21;14.97;;;10.23;;
2720;SDS011;1368;49.484;11.112;2024-03-23T03:41:47;12.47;;;10.20;;
2720;SDS011;1368;49.484;11.112;2024-03-23T03:44:13;16.00;;;11.50;;
2720;SDS011;1368;49.484;11.112;2024-03-23T03:46:39;17.43;;;11.70;;
2720;SDS011;1368;49.484;11.112;2024-03-23T03:49:04;12.57;;;10.87;;
2720;SDS011;1368;49.484;11.112;2024-03-23T03:51:30;12.07;;;10.53;;
2720;SDS011;1368;49.484;11.112;2024-03-23T03:53:56;13.43;;;11.33;;
2720;SDS011;1368;49.484;11.112;2024-03-23T03:56:21;15.00;;;11.03;;
2720;SDS011;1368;49.484;11.112;2024-03-23T03:58:47;12.40;;;10.60;;
2720;SDS011;1368;49.484;11.112;2024-03-23T04:01:13;16.60;;;11.43;;
2720;SDS011;1368;49.484;11.112;2024-03-23T04:03:38;15.73;;;11.30;;
2720;SDS011;1368;49.484;11.112;2024-03-23T04:06:08;13.37;;;11.03;;
2720;SDS011;1368;49.484;11.112;2024-03-23T04:08:34;14.63;;;11.83;;
2720;SDS011;1368;49.484;11.112;2024-03-23T04:11:00;16.10;;;11.70;;
2720;SDS011;1368;49.484;11.112;2024-03-23T04:13:26;13.50;;;11.30;;
2720;SDS011;1368;49.484;11.112;2024-03-23T04:15:55;16.80;;;12.90;;
2720;SDS011;1368;49.484;11.112;2024-03-23T04:18:21;16.63;;;12.43;;
2720;SDS011;1368;49.484;11.112;2024-03-23T04:20:47;17.20;;;13.27;;
2720;SDS011;1368;49.484;11.112;2024-03-23T04:23:13;25.90;;;14.13;;
2720;SDS011;1368;49.484;11.112;2024-03-23T04:25:39;15.80;;;12.87;;
2720;SDS011;1368;49.484;11.112;2024-03-23T04:28:04;19.37;;;14.20;;
2720;SDS011;1368;49.484;11.112;2024-03-23T04:30:30;22.63;;;14.30;;
2720;SDS011;1368;49.484;11.112;2024-03-23T04:32:56;15.43;;;11.57;;
2720;SDS011;1368;49.484;11.112;2024-03-23T04:35:23;26.40;;;14.30;;
2720;SDS011;1368;49.484;11.112;2024-03-23T04:37:50;16.27;;;14.10;;
2720;SDS011;1368;49.484;11.112;2024-03-23T04:40:17;19.93;;;13.53;;
2720;SDS011;1368;49.484;11.112;2024-03-23T04:42:43;30.33;;;14.30;;
2720;SDS011;1368;49.484;11.112;2024-03-23T04:45:09;16.90;;;13.93;;
2720;SDS011;1368;49.484;11.112;2024-03-23T04:47:35;18.47;;;13.70;;
2720;SDS011;1368;49.484;11.112;2024-03-23T04:50:04;18.13;;;13.00;;
2720;SDS011;1368;49.484;11.112;2024-03-23T04:52:30;20.87;;;12.80;;
2720;SDS011;1368;49.484;11.112;2024-03-23T04:54:56;17.57;;;13.33;;
2720;SDS011;1368;49.484;11.112;2024-03-23T04:57:21;16.97;;;13.37;;
2720;SDS011;1368;49.484;11.112;2024-03-23T04:59:47;19.87;;;11.83;;
2720;SDS011;1368;49.484;11.112;2024-03-23T05:02:13;17.10;;;12.93;;
2720;SDS011;1368;49.484;11.112;2024-03-23T05:04:39;18.63;;;13.50;;
2720;SDS011;1368;49.484;11.112;2024-03-23T05:07:05;17.03;;;12.37;;
2720;SDS011;1368;49.484;11.112;2024-03-23T05:09:31;16.47;;;12.53;;
2720;SDS011;1368;49.484;11.112;2024-03-23T05:11:58;17.17;;;12.57;;
2720;SDS011;1368;49.484;11.112;2024-03-23T05:14:25;15.90;;;11.90;;
2720;SDS011;1368;49.484;11.112;2024-03-23T05:16:51;15.43;;;12.17;;
2720;SDS011;1368;49.484;11.112;2024-03-23T05:19:17;21.13;;;12.40;;
2720;SDS011;1368;49.484;11.112;2024-03-23T05:21:43;16.10;;;12.00;;
2720;SDS011;1368;49.484;11.112;2024-03-23T05:24:09;16.43;;;12.20;;
2720;SDS011;1368;49.484;11.112;2024-03-23T05:26:34;16.77;;;11.80;;
2720;SDS011;1368;49.484;11.112;2024-03-23T05:29:00;20.20;;;12.40;;
2720;SDS011;1368;49.484;11.112;2024-03-23T05:31:27;15.90;;;11.47;;
2720;SDS011;1368;49.484;11.112;2024-03-23T05:33:54;16.10;;;11.67;;
2720;SDS011;1368;49.484;11.112;2024-03-23T05:36:20;18.30;;;11.60;;
2720;SDS011;1368;49.484;11.112;2024-03-23T05:38:46;16.33;;;12.30;;
2720;SDS011;1368;49.484;11.112;2024-03-23T05:41:12;16.20;;;11.10;;
2720;SDS011;1368;49.484;11.112;2024-03-23T05:43:38;14.70;;;10.23;;
2720;SDS011;1368;49.484;11.112;2024-03-23T05:46:03;15.80;;;10.87;;
2720;SDS011;1368;49.484;11.112;2024-03-23T05:48:32;13.70;;;11.17;;
2720;SDS011;1368;49.484;11.112;2024-03-23T05:50:58;16.50;;;11.80;;
2720;SDS011;1368;49.484;11.112;2024-03-23T05:53:24;15.93;;;10.83;;
2720;SDS011;1368;49.484;11.112;2024-03-23T05:55:50;14.03;;;10.30;;
2720;SDS011;1368;49.484;11.112;2024-03-23T05:58:18;19.17;;;10.50;;
2720;SDS011;1368;49.484;11.112;2024-03-23T06:00:45;14.97;;;10.57;;
2720;SDS011;1368;49.484;11.112;2024-03-23T06:03:11;13.23;;;10.10;;
2720;SDS011;1368;49.484;11.112;2024-03-23T06:05:37;14.80;;;10.87;;
2720;SDS011;1368;49.484;11.112;2024-03-23T06:08:03;15.10;;;10.20;;
2720;SDS011;1368;49.484;11.112;2024-03-23T06:10:29;15.53;;;10.33;;
2720;SDS011;1368;49.484;11.112;2024-03-23T06:12:54;12.43;;;8.60;;
2720;SDS011;1368;49.484;11.112;2024-03-23T06:15:20;13.80;;;9.30;;
2720;SDS011;1368;49.484;11.112;2024-03-23T06:17:47;14.47;;;9.30;;
2720;SDS011;1368;49.484;11.112;2024-03-23T06:20:13;12.63;;;9.80;;
2720;SDS011;1368;49.484;11.112;2024-03-23T06:22:39;17.47;;;11.00;;
2720;SDS011;1368;49.484;11.112;2024-03-23T06:25:05;12.07;;;9.60;;
2720;SDS011;1368;49.484;11.112;2024-03-23T06:27:31;14.20;;;10.53;;
2720;SDS011;1368;49.484;11.112;2024-03-23T06:29:58;14.20;;;10.70;;
2720;SDS011;1368;49.484;11.112;2024-03-23T06:32:24;14.57;;;12.43;;
2720;SDS011;1368;49.484;11.112;2024-03-23T06:34:49;17.57;;;13.30;;
2720;SDS011;1368;49.484;11.112;2024-03-23T06:37:15;15.80;;;11.50;;
2720;SDS011;1368;49.484;11.112;2024-03-23T06:39:41;15.80;;;12.13;;
2720;SDS011;1368;49.484;11.112;2024-03-23T06:42:06;17.77;;;13.07;;
2720;SDS011;1368;49.484;11.112;2024-03-23T06:44:33;18.70;;;14.53;;
2720;SDS011;1368;49.484;11.112;2024-03-23T06:46:58;19.73;;;14.93;;
2720;SDS011;1368;49.484;11.112;2024-03-23T06:49:24;17.93;;;14.30;;
2720;SDS011;1368;49.484;11.112;2024-03-23T06:51:50;19.60;;;15.07;;
2720;SDS011;1368;49.484;11.112;2024-03-23T06:54:16;22.07;;;15.17;;
2720;SDS011;1368;49.484;11.112;2024-03-23T06:56:44;19.30;;;14.57;;
2720;SDS011;1368;49.484;11.112;2024-03-23T06:59:10;21.50;;;15.37;;
2720;SDS011;1368;49.484;11.112;2024-03-23T07:01:36;20.97;;;14.30;;
2720;SDS011;1368;49.484;11.112;2024-03-23T07:04:02;21.50;;;14.83;;
2720;SDS011;1368;49.484;11.112;2024-03-23T07:06:28;16.60;;;12.60;;
2720;SDS011;1368;49.484;11.112;2024-03-23T07:08:54;18.93;;;13.60;;
2720;SDS011;1368;49.484;11.112;2024-03-23T07:11:23;21.67;;;14.90;;
2720;SDS011;1368;49.484;11.112;2024-03-23T07:13:49;17.20;;;12.50;;
2720;SDS011;1368;49.484;11.112;2024-03-23T07:16:16;17.80;;;14.07;;
2720;SDS011;1368;49.484;11.112;2024-03-23T07:18:42;16.87;;;13.23;;
2720;SDS011;1368;49.484;11.112;2024-03-23T07:21:08;17.00;;;12.17;;
2720;SDS011;1368;49.484;11.112;2024-03-23T07:23:33;16.80;;;11.93;;
2720;SDS011;1368;49.484;11.112;2024-03-23T07:26:03;18.60;;;12.60;;
2720;SDS011;1368;49.484;11.112;2024-03-23T07:28:30;19.30;;;12.37;;
2720;SDS011;1368;49.484;11.112;2024-03-23T07:31:03;15.00;;;10.80;;
2720;SDS011;1368;49.484;11.112;2024-03-23T07:33:34;11.77;;;9.03;;
2720;SDS011;1368;49.484;11.112;2024-03-23T07:36:01;19.33;;;11.60;;
2720;SDS011;1368;49.484;11.112;2024-03-23T07:38:27;15.90;;;9.77;;
2720;SDS011;1368;49.484;11.112;2024-03-23T07:41:03;12.20;;;8.37;;
2720;SDS011;1368;49.484;11.112;2024-03-23T07:43:30;13.30;;;9.40;;
2720;SDS011;1368;49.484;11.112;2024-03-23T07:45:55;14.50;;;9.43;;
2720;SDS011;1368;49.484;11.112;2024-03-23T07:48:21;13.27;;;9.87;;
2720;SDS011;1368;49.484;11.112;2024-03-23T07:50:55;14.20;;;9.93;;
2720;SDS011;1368;49.484;11.112;2024-03-23T07:53:32;16.27;;;10.80;;
2720;SDS011;1368;49.484;11.112;2024-03-23T07:58:26;16.13;;;11.93;;
2720;SDS011;1368;49.484;11.112;2024-03-23T08:00:55;15.43;;;11.67;;
2720;SDS011;1368;49.484;11.112;2024-03-23T08:03:21;13.13;;;9.27;;
2720;SDS011;1368;49.484;11.112;2024-03-23T08:05:47;13.17;;;10.33;;
2720;SDS011;1368;49.484;11.112;2024-03-23T08:08:13;14.40;;;10.33;;
2720;SDS011;1368;49.484;11.112;2024-03-23T08:10:51;14.57;;;10.63;;
2720;SDS011;1368;49.484;11.112;2024-03-23T08:13:18;17.33;;;10.20;;
2720;SDS011;1368;49.484;11.112;2024-03-23T08:15:44;12.80;;;9.53;;
2720;SDS011;1368;49.484;11.112;2024-03-23T08:18:13;15.10;;;10.43;;
2720;SDS011;1368;49.484;11.112;2024-03-23T08:20:40;16.10;;;10.97;;
2720;SDS011;1368;49.484;11.112;2024-03-23T08:23:06;18.87;;;11.50;;
2720;SDS011;1368;49.484;11.112;2024-03-23T08:25:32;18.20;;;11.27;;
2720;SDS011;1368;49.484;11.112;2024-03-23T08:27:58;13.70;;;8.50;;
2720;SDS011;1368;49.484;11.112;2024-03-23T08:30:24;12.87;;;7.93;;
2720;SDS011;1368;49.484;11.112;2024-03-23T08:32:50;13.30;;;8.60;;
2720;SDS011;1368;49.484;11.112;2024-03-23T08:35:16;8.83;;;6.30;;
2720;SDS011;1368;49.484;11.112;2024-03-23T08:37:41;10.53;;;6.73;;
2720;SDS011;1368;49.484;11.112;2024-03-23T08:40:07;10.67;;;6.63;;
2720;SDS011;1368;49.484;11.112;2024-03-23T08:42:33;7.47;;;4.37;;
2720;SDS011;1368;49.484;11.112;2024-03-23T08:44:59;8.47;;;5.57;;
2720;SDS011;1368;49.484;11.112;2024-03-23T08:47:25;7.53;;;4.60;;
2720;SDS011;1368;49.484;11.112;2024-03-23T08:49:50;6.27;;;4.00;;
2720;SDS011;1368;49.484;11.112;2024-03-23T08:52:16;6.43;;;5.07;;
2720;SDS011;1368;49.484;11.112;2024-03-23T08:54:42;6.63;;;5.07;;
2720;SDS011;1368;49.484;11.112;2024-03-23T08:57:08;4.83;;;3.27;;
2720;SDS011;1368;49.484;11.112;2024-03-23T08:59:34;4.93;;;3.90;;
2720;SDS011;1368;49.484;11.112;2024-03-23T09:01:59;5.70;;;3.20;;
2720;SDS011;1368;49.484;11.112;2024-03-23T09:04:25;3.17;;;2.77;;
2720;SDS011;1368;49.484;11.112;2024-03-23T09:06:51;3.07;;;2.57;;
2720;SDS011;1368;49.484;11.112;2024-03-23T09:09:16;3.63;;;3.10;;
2720;SDS011;1368;49.484;11.112;2024-03-23T09:11:42;4.00;;;2.80;;
2720;SDS011;1368;49.484;11.112;2024-03-23T09:14:08;3.63;;;3.00;;
2720;SDS011;1368;49.484;11.112;2024-03-23T09:16:34;4.20;;;2.70;;
2720;SDS011;1368;49.484;11.112;2024-03-23T09:19:00;4.40;;;1.60;;
2720;SDS011;1368;49.484;11.112;2024-03-23T09:21:25;3.27;;;1.73;;
2720;SDS011;1368;49.484;11.112;2024-03-23T09:23:51;2.83;;;1.47;;
2720;SDS011;1368;49.484;11.112;2024-03-23T09:26:16;2.47;;;1.50;;
2720;SDS011;1368;49.484;11.112;2024-03-23T09:28:42;2.53;;;1.53;;
2720;SDS011;1368;49.484;11.112;2024-03-23T09:31:08;3.10;;;1.50;;
2720;SDS011;1368;49.484;11.112;2024-03-23T09:33:39;3.00;;;1.40;;
2720;SDS011;1368;49.484;11.112;2024-03-23T09:36:05;3.60;;;1.90;;
2720;SDS011;1368;49.484;11.112;2024-03-23T09:38:31;2.20;;;1.13;;
2720;SDS011;1368;49.484;11.112;2024-03-23T09:40:57;3.30;;;1.47;;
2720;SDS011;1368;49.484;11.112;2024-03-23T09:43:23;2.83;;;1.23;;
2720;SDS011;1368;49.484;11.112;2024-03-23T09:45:49;2.40;;;1.40;;
2720;SDS011;1368;49.484;11.112;2024-03-23T09:48:15;1.40;;;0.70;;
2720;SDS011;1368;49.484;11.112;2024-03-23T09:50:44;1.50;;;0.70;;
2720;SDS011;1368;49.484;11.112;2024-03-23T09:53:11;1.90;;;0.90;;
2720;SDS011;1368;49.484;11.112;2024-03-23T09:55:38;3.20;;;0.90;;
2720;SDS011;1368;49.484;11.112;2024-03-23T09:58:05;2.43;;;1.03;;
2720;SDS011;1368;49.484;11.112;2024-03-23T10:00:31;2.63;;;1.40;;
2720;SDS011;1368;49.484;11.112;2024-03-23T10:03:00;3.80;;;1.30;;
2720;SDS011;1368;49.484;11.112;2024-03-23T10:05:29;1.30;;;0.53;;
2720;SDS011;1368;49.484;11.112;2024-03-23T10:10:39;3.30;;;1.37;;
2720;SDS011;1368;49.484;11.112;2024-03-23T10:13:04;2.17;;;0.90;;
2720;SDS011;1368;49.484;11.112;2024-03-23T10:15:30;2.00;;;0.93;;
2720;SDS011;1368;49.484;11.112;2024-03-23T10:18:01;2.47;;;1.27;;
2720;SDS011;1368;49.484;11.112;2024-03-23T10:20:44;2.43;;;1.13;;
2720;SDS011;1368;49.484;11.112;2024-03-23T10:23:16;2.23;;;0.90;;
2720;SDS011;1368;49.484;11.112;2024-03-23T10:25:42;1.90;;;0.93;;
2720;SDS011;1368;49.484;11.112;2024-03-23T10:28:08;2.00;;;1.27;;
2720;SDS011;1368;49.484;11.112;2024-03-23T10:30:34;2.60;;;1.03;;
2720;SDS011;1368;49.484;11.112;2024-03-23T10:33:09;2.70;;;1.30;;
2720;SDS011;1368;49.484;11.112;2024-03-23T10:35:38;3.27;;;1.30;;
2720;SDS011;1368;49.484;11.112;2024-03-23T10:38:05;2.63;;;1.23;;
2720;SDS011;1368;49.484;11.112;2024-03-23T10:40:33;2.07;;;1.50;;
2720;SDS011;1368;49.484;11.112;2024-03-23T10:43:00;3.73;;;1.87;;
2720;SDS011;1368;49.484;11.112;2024-03-23T10:45:25;4.00;;;1.80;;
2720;SDS011;1368;49.484;11.112;2024-03-23T10:47:51;2.93;;;1.47;;
2720;SDS011;1368;49.484;11.112;2024-03-23T10:50:17;2.10;;;1.33;;
2720;SDS011;1368;49.484;11.112;2024-03-23T10:52:45;3.97;;;1.73;;
2720;SDS011;1368;49.484;11.112;2024-03-23T10:55:12;3.30;;;1.70;;
2720;SDS011;1368;49.484;11.112;2024-03-23T10:57:41;3.67;;;2.10;;
2720;SDS011;1368;49.484;11.112;2024-03-23T11:00:19;5.40;;;2.70;;
2720;SDS011;1368;49.484;11.112;2024-03-23T11:02:47;3.33;;;1.80;;
2720;SDS011;1368;49.484;11.112;2024-03-23T11:07:51;2.90;;;1.93;;
2720;SDS011;1368;49.484;11.112;2024-03-23T11:10:24;3.87;;;2.00;;
2720;SDS011;1368;49.484;11.112;2024-03-23T11:12:49;3.90;;;2.60;;
2720;SDS011;1368;49.484;11.112;2024-03-23T11:15:15;3.47;;;2.43;;
2720;SDS011;1368;49.484;11.112;2024-03-23T11:17:41;4.30;;;2.13;;
2720;SDS011;1368;49.484;11.112;2024-03-23T11:20:06;5.07;;;2.97;;
2720;SDS011;1368;49.484;11.112;2024-03-23T11:25:24;5.87;;;2.60;;
2720;SDS011;1368;49.484;11.112;2024-03-23T11:27:52;8.20;;;2.40;;
2720;SDS011;1368;49.484;11.112;2024-03-23T11:30:26;4.67;;;2.90;;
2720;SDS011;1368;49.484;11.112;2024-03-23T11:32:56;5.27;;;2.50;;
2720;SDS011;1368;49.484;11.112;2024-03-23T11:35:26;6.17;;;3.00;;
2720;SDS011;1368;49.484;11.112;2024-03-23T11:38:04;4.90;;;2.60;;
2720;SDS011;1368;49.484;11.112;2024-03-23T11:40:31;3.70;;;2.40;;
2720;SDS011;1368;49.484;11.112;2024-03-23T11:43:16;5.37;;;3.03;;
2720;SDS011;1368;49.484;11.112;2024-03-23T11:45:44;5.40;;;2.70;;
2720;SDS011;1368;49.484;11.112;2024-03-23T11:48:11;4.70;;;2.60;;
2720;SDS011;1368;49.484;11.112;2024-03-23T11:50:48;5.23;;;3.00;;
2720;SDS011;1368;49.484;11.112;2024-03-23T11:53:16;8.63;;;3.53;;
2720;SDS011;1368;49.484;11.112;2024-03-23T11:55:49;9.40;;;3.27;;
2720;SDS011;1368;49.484;11.112;2024-03-23T11:58:15;10.87;;;3.87;;
2720;SDS011;1368;49.484;11.112;2024-03-23T12:00:42;9.63;;;3.50;;
2720;SDS011;1368;49.484;11.112;2024-03-23T12:03:15;6.47;;;3.40;;
2720;SDS011;1368;49.484;11.112;2024-03-23T12:05:47;8.73;;;4.07;;
2720;SDS011;1368;49.484;11.112;2024-03-23T12:10:50;5.17;;;3.33;;
2720;SDS011;1368;49.484;11.112;2024-03-23T12:13:21;9.27;;;3.77;;
2720;SDS011;1368;49.484;11.112;2024-03-23T12:15:47;4.57;;;2.70;;
2720;SDS011;1368;49.484;11.112;2024-03-23T12:18:14;6.30;;;3.00;;
2720;SDS011;1368;49.484;11.112;2024-03-23T12:20:40;4.00;;;2.83;;
2720;SDS011;1368;49.484;11.112;2024-03-23T12:23:06;8.93;;;2.53;;
2720;SDS011;1368;49.484;11.112;2024-03-23T12:25:32;7.07;;;2.80;;
2720;SDS011;1368;49.484;11.112;2024-03-23T12:27:59;5.40;;;2.13;;
2720;SDS011;1368;49.484;11.112;2024-03-23T12:30:25;7.90;;;2.97;;
2720;SDS011;1368;49.484;11.112;2024-03-23T12:32:51;3.67;;;2.33;;
2720;SDS011;1368;49.484;11.112;2024-03-23T12:35:16;6.20;;;3.27;;
2720;SDS011;1368;49.484;11.112;2024-03-23T12:37:43;7.37;;;3.23;;
2720;SDS011;1368;49.484;11.112;2024-03-23T12:40:08;4.07;;;2.67;;
2720;SDS011;1368;49.484;11.112;2024-03-23T12:42:34;5.47;;;3.10;;
2720;SDS011;1368;49.484;11.112;2024-03-23T12:45:00;6.83;;;2.97;;
2720;SDS011;1368;49.484;11.112;2024-03-23T12:47:26;8.17;;;2.97;;
2720;SDS011;1368;49.484;11.112;2024-03-23T12:49:52;7.47;;;3.60;;
2720;SDS011;1368;49.484;11.112;2024-03-23T12:52:17;7.73;;;4.00;;
2720;SDS011;1368;49.484;11.112;2024-03-23T12:54:45;4.20;;;3.07;;
2720;SDS011;1368;49.484;11.112;2024-03-23T12:57:10;12.13;;;4.10;;
2720;SDS011;1368;49.484;11.112;2024-03-23T12:59:36;8.17;;;3.10;;
2720;SDS011;1368;49.484;11.112;2024-03-23T13:02:02;6.20;;;3.20;;
2720;SDS011;1368;49.484;11.112;2024-03-23T13:04:27;7.60;;;3.33;;
2720;SDS011;1368;49.484;11.112;2024-03-23T13:06:53;7.73;;;3.20;;
2720;SDS011;1368;49.484;11.112;2024-03-23T13:09:18;7.67;;;3.43;;
2720;SDS011;1368;49.484;11.112;2024-03-23T13:11:44;8.40;;;3.90;;
2720;SDS011;1368;49.484;11.112;2024-03-23T13:14:09;10.53;;;3.53;;
2720;SDS011;1368;49.484;11.112;2024-03-23T13:16:35;10.87;;;4.90;;
2720;SDS011;1368;49.484;11.112;2024-03-23T13:19:00;8.10;;;2.90;;
2720;SDS011;1368;49.484;11.112;2024-03-23T13:21:26;7.70;;;3.70;;
2720;SDS011;1368;49.484;11.112;2024-03-23T13:23:52;7.90;;;3.37;;
2720;SDS011;1368;49.484;11.112;2024-03-23T13:26:17;6.47;;;3.80;;
2720;SDS011;1368;49.484;11.112;2024-03-23T13:28:43;6.77;;;3.57;;
2720;SDS011;1368;49.484;11.112;2024-03-23T13:31:09;9.73;;;3.63;;
2720;SDS011;1368;49.484;11.112;2024-03-23T13:33:35;8.70;;;3.60;;
2720;SDS011;1368;49.484;11.112;2024-03-23T13:36:00;6.53;;;3.43;;
2720;SDS011;1368;49.484;11.112;2024-03-23T13:38:28;6.53;;;3.20;;
2720;SDS011;1368;49.484;11.112;2024-03-23T13:43:23;7.00;;;3.90;;
2720;SDS011;1368;49.484;11.112;2024-03-23T13:45:53;8.70;;;4.00;;
2720;SDS011;1368;49.484;11.112;2024-03-23T13:48:20;6.87;;;3.70;;
2720;SDS011;1368;49.484;11.112;2024-03-23T13:50:56;6.03;;;3.30;;
2720;SDS011;1368;49.484;11.112;2024-03-23T13:53:24;7.93;;;3.77;;
2720;SDS011;1368;49.484;11.112;2024-03-23T13:55:50;7.53;;;3.77;;
2720;SDS011;1368;49.484;11.112;2024-03-23T13:58:16;5.73;;;2.60;;
2720;SDS011;1368;49.484;11.112;2024-03-23T14:00:41;9.93;;;3.53;;
2720;SDS011;1368;49.484;11.112;2024-03-23T14:03:10;4.83;;;2.77;;
2720;SDS011;1368;49.484;11.112;2024-03-23T14:05:36;8.53;;;3.97;;
2720;SDS011;1368;49.484;11.112;2024-03-23T14:08:08;8.33;;;3.10;;
2720;SDS011;1368;49.484;11.112;2024-03-23T14:10:35;11.50;;;3.73;;
2720;SDS011;1368;49.484;11.112;2024-03-23T14:13:04;6.40;;;3.20;;
2720;SDS011;1368;49.484;11.112;2024-03-23T14:15:29;8.23;;;4.07;;
2720;SDS011;1368;49.484;11.112;2024-03-23T14:17:56;8.67;;;3.90;;
2720;SDS011;1368;49.484;11.112;2024-03-23T14:20:22;10.03;;;3.20;;
2720;SDS011;1368;49.484;11.112;2024-03-23T14:22:48;7.90;;;3.20;;
2720;SDS011;1368;49.484;11.112;2024-03-23T14:25:14;11.27;;;3.70;;
2720;SDS011;1368;49.484;11.112;2024-03-23T14:27:40;5.60;;;3.03;;
2720;SDS011;1368;49.484;11.112;2024-03-23T14:30:05;7.33;;;3.00;;
2720;SDS011;1368;49.484;11.112;2024-03-23T14:32:31;6.20;;;2.50;;
2720;SDS011;1368;49.484;11.112;2024-03-23T14:35:02;5.40;;;2.30;;
2720;SDS011;1368;49.484;11.112;2024-03-23T14:37:29;5.60;;;3.03;;
2720;SDS011;1368;49.484;11.112;2024-03-23T14:39:57;10.70;;;3.03;;
2720;SDS011;1368;49.484;11.112;2024-03-23T14:42:24;9.17;;;3.40;;
2720;SDS011;1368;49.484;11.112;2024-03-23T14:44:50;6.67;;;2.80;;
2720;SDS011;1368;49.484;11.112;2024-03-23T14:47:17;6.40;;;3.90;;
2720;SDS011;1368;49.484;11.112;2024-03-23T14:49:43;7.40;;;3.23;;
2720;SDS011;1368;49.484;11.112;2024-03-23T14:52:15;5.10;;;3.03;;
2720;SDS011;1368;49.484;11.112;2024-03-23T14:54:41;5.60;;;2.80;;
2720;SDS011;1368;49.484;11.112;2024-03-23T14:57:06;11.43;;;3.03;;
2720;SDS011;1368;49.484;11.112;2024-03-23T14:59:34;8.10;;;3.23;;
2720;SDS011;1368;49.484;11.112;2024-03-23T15:02:00;7.63;;;3.80;;
2720;SDS011;1368;49.484;11.112;2024-03-23T15:04:25;5.73;;;2.90;;
2720;SDS011;1368;49.484;11.112;2024-03-23T15:06:51;8.83;;;3.97;;
2720;SDS011;1368;49.484;11.112;2024-03-23T15:09:16;7.97;;;4.33;;
2720;SDS011;1368;49.484;11.112;2024-03-23T15:11:43;11.93;;;3.53;;
2720;SDS011;1368;49.484;11.112;2024-03-23T15:14:09;7.50;;;3.47;;
2720;SDS011;1368;49.484;11.112;2024-03-23T15:16:36;6.07;;;3.20;;
2720;SDS011;1368;49.484;11.112;2024-03-23T15:19:02;8.20;;;5.07;;
2720;SDS011;1368;49.484;11.112;2024-03-23T15:21:28;17.57;;;5.00;;
2720;SDS011;1368;49.484;11.112;2024-03-23T15:23:53;8.63;;;4.33;;
2720;SDS011;1368;49.484;11.112;2024-03-23T15:26:19;8.40;;;4.07;;
2720;SDS011;1368;49.484;11.112;2024-03-23T15:28:47;10.90;;;3.97;;
2720;SDS011;1368;49.484;11.112;2024-03-23T15:31:34;7.40;;;4.50;;
2720;SDS011;1368;49.484;11.112;2024-03-23T15:34:00;6.00;;;4.00;;
2720;SDS011;1368;49.484;11.112;2024-03-23T15:36:26;6.73;;;3.53;;
2720;SDS011;1368;49.484;11.112;2024-03-23T15:38:51;5.20;;;3.20;;
2720;SDS011;1368;49.484;11.112;2024-03-23T15:41:19;9.03;;;3.57;;
2720;SDS011;1368;49.484;11.112;2024-03-23T15:43:48;4.60;;;3.17;;
2720;SDS011;1368;49.484;11.112;2024-03-23T15:46:13;7.37;;;4.20;;
2720;SDS011;1368;49.484;11.112;2024-03-23T15:48:39;8.00;;;3.90;;
2720;SDS011;1368;49.484;11.112;2024-03-23T15:51:10;6.13;;;4.27;;
2720;SDS011;1368;49.484;11.112;2024-03-23T15:53:36;5.97;;;3.47;;